PWSweather.com
Personal Weather Stations
Station Observations
WAREHAM1
West Wareham, MA 02576

West Wareham, MA 02576

Lat: 41.7961059, Lon: -70.775612

Elevation: 88

Station Type: Davis Vantage Vue

http://www.gateway2capecod.net

High Low Average
Temperature 10.8°F-11.8°C 2.8°F-16.2°C 5.8°F-14.6°C
Dew Point 4.5°F-15.3°C -5.6°F-20.9°C -2.3°F-19.1°C
Winds 4.9 mph 7.9 kmh 2.0 mph 3.2 kmh 3.0 mph WSW4.8 kmh WSW
Wind Gusts 21.0 mph33.8 kmh 6.0 mph9.7 kmh 12.0 mph19.3 kmh
Humidity 76% 60% 69%
Pressure 30.17 in1021.7 mb 29.55 in1000.7 mb -
Precipitation 0.00 in0.0 mm - -
Hour Temp Dew Point Humidity Winds Wind Gusts Pressure Precip Precip Rate Daily Precip Total
12:09 AM 14.9°F-9.5°C 9.0°F-12.8°C 77% 2.0 mph W3.2 kmh W 13.0 mph20.9 kmh 29.51 in999.3 mb 0.00 in0.0 mm 0.00 in0.0 mm 3.10 in78.7 mm
12:19 AM 14.0°F-10.0°C 7.9°F-13.4°C 76% 2.9 mph NW4.7 kmh NW 11.0 mph17.7 kmh 29.51 in999.3 mb 0.00 in0.0 mm 0.00 in0.0 mm 3.10 in78.7 mm
12:29 AM 13.3°F-10.4°C 6.8°F-14.0°C 75% 4.0 mph NW6.4 kmh NW 10.1 mph16.3 kmh 29.52 in999.7 mb 0.00 in0.0 mm 0.00 in0.0 mm 3.10 in78.7 mm
12:39 AM 12.6°F-10.8°C 6.1°F-14.4°C 75% 2.9 mph NNW4.7 kmh NNW 10.1 mph16.3 kmh 29.53 in1000.0 mb 0.00 in0.0 mm 0.00 in0.0 mm 3.10 in78.7 mm
12:49 AM 11.8°F-11.2°C 5.2°F-14.9°C 74% 2.0 mph NE3.2 kmh NE 8.9 mph14.3 kmh 29.54 in1000.3 mb 0.00 in0.0 mm 0.00 in0.0 mm 3.10 in78.7 mm
12:59 AM 11.1°F-11.6°C 4.5°F-15.3°C 74% 2.9 mph WNW4.7 kmh WNW 14.1 mph22.7 kmh 29.54 in1000.3 mb 0.00 in0.0 mm 0.00 in0.0 mm 3.10 in78.7 mm
01:09 AM 10.8°F-11.8°C 4.5°F-15.3°C 75% 2.9 mph WNW4.7 kmh WNW 12.1 mph19.5 kmh 29.55 in1000.7 mb 0.00 in0.0 mm 0.00 in0.0 mm 0.00 in0.0 mm
01:19 AM 10.2°F-12.1°C 3.6°F-15.8°C 74% 4.0 mph W6.4 kmh W 19.0 mph30.6 kmh 29.55 in1000.7 mb 0.00 in0.0 mm 0.00 in0.0 mm 0.00 in0.0 mm
01:29 AM 10.0°F-12.2°C 3.4°F-15.9°C 74% 2.9 mph WNW4.7 kmh WNW 9.0 mph14.5 kmh 29.55 in1000.7 mb 0.00 in0.0 mm 0.00 in0.0 mm 0.00 in0.0 mm
01:39 AM 9.5°F-12.5°C 2.3°F-16.5°C 72% 4.0 mph WSW6.4 kmh WSW 12.1 mph19.5 kmh 29.56 in1001.0 mb 0.00 in0.0 mm 0.00 in0.0 mm 0.00 in0.0 mm
01:49 AM 9.1°F-12.7°C 1.9°F-16.7°C 72% 4.0 mph N6.4 kmh N 14.1 mph22.7 kmh 29.55 in1000.7 mb 0.00 in0.0 mm 0.00 in0.0 mm 0.00 in0.0 mm
01:59 AM 9.0°F-12.8°C 2.3°F-16.5°C 74% 2.9 mph NW4.7 kmh NW 12.1 mph19.5 kmh 29.57 in1001.4 mb 0.00 in0.0 mm 0.00 in0.0 mm 0.00 in0.0 mm
02:09 AM 8.8°F-12.9°C 1.6°F-16.9°C 72% 4.0 mph WSW6.4 kmh WSW 11.0 mph17.7 kmh 29.57 in1001.4 mb 0.00 in0.0 mm 0.00 in0.0 mm 0.00 in0.0 mm
02:19 AM 8.2°F-13.2°C 0.9°F-17.3°C 71% 4.0 mph WSW6.4 kmh WSW 14.0 mph22.5 kmh 29.57 in1001.4 mb 0.00 in0.0 mm 0.00 in0.0 mm 0.00 in0.0 mm
02:29 AM 8.1°F-13.3°C 0.7°F-17.4°C 71% 4.0 mph SW6.4 kmh SW 16.1 mph25.9 kmh 29.58 in1001.7 mb 0.00 in0.0 mm 0.00 in0.0 mm 0.00 in0.0 mm
02:39 AM 7.9°F-13.4°C 0.5°F-17.5°C 71% 4.0 mph S6.4 kmh S 13.0 mph20.9 kmh 29.58 in1001.7 mb 0.00 in0.0 mm 0.00 in0.0 mm 0.00 in0.0 mm
02:49 AM 7.9°F-13.4°C 0.5°F-17.5°C 71% 4.0 mph WNW6.4 kmh WNW 12.1 mph19.5 kmh 29.59 in1002.0 mb 0.00 in0.0 mm 0.00 in0.0 mm 0.00 in0.0 mm
02:59 AM 7.7°F-13.5°C 0.3°F-17.6°C 71% 2.9 mph W4.7 kmh W 10.1 mph16.3 kmh 29.60 in1002.4 mb 0.00 in0.0 mm 0.00 in0.0 mm 0.00 in0.0 mm
03:09 AM 7.5°F-13.6°C 0.1°F-17.7°C 71% 4.0 mph NW6.4 kmh NW 12.1 mph19.5 kmh 29.61 in1002.7 mb 0.00 in0.0 mm 0.00 in0.0 mm 0.00 in0.0 mm
03:19 AM 7.5°F-13.6°C 0.1°F-17.7°C 71% 4.0 mph NNW6.4 kmh NNW 10.1 mph16.3 kmh 29.61 in1002.7 mb 0.00 in0.0 mm 0.00 in0.0 mm 0.00 in0.0 mm
03:29 AM 7.3°F-13.7°C 0.0°F-17.8°C 71% 2.9 mph W4.7 kmh W 10.1 mph16.3 kmh 29.61 in1002.7 mb 0.00 in0.0 mm 0.00 in0.0 mm 0.00 in0.0 mm
03:39 AM 7.2°F-13.8°C -0.2°F-17.9°C 71% 4.0 mph W6.4 kmh W 10.0 mph16.1 kmh 29.61 in1002.7 mb 0.00 in0.0 mm 0.00 in0.0 mm 0.00 in0.0 mm
03:49 AM 7.2°F-13.8°C -0.6°F-18.1°C 70% 4.0 mph W6.4 kmh W 15.0 mph24.1 kmh 29.62 in1003.0 mb 0.00 in0.0 mm 0.00 in0.0 mm 0.00 in0.0 mm
03:59 AM 7.2°F-13.8°C -0.2°F-17.9°C 71% 2.9 mph WNW4.7 kmh WNW 10.1 mph16.3 kmh 29.62 in1003.0 mb 0.00 in0.0 mm 0.00 in0.0 mm 0.00 in0.0 mm
04:09 AM 7.0°F-13.9°C -0.4°F-18.0°C 71% 2.0 mph W3.2 kmh W 13.0 mph20.9 kmh 29.62 in1003.0 mb 0.00 in0.0 mm 0.00 in0.0 mm 0.00 in0.0 mm
04:19 AM 6.8°F-14.0°C -0.6°F-18.1°C 71% 4.0 mph NNE6.4 kmh NNE 12.1 mph19.5 kmh 29.63 in1003.4 mb 0.00 in0.0 mm 0.00 in0.0 mm 0.00 in0.0 mm
04:29 AM 6.6°F-14.1°C -0.8°F-18.2°C 71% 2.9 mph W4.7 kmh W 12.1 mph19.5 kmh 29.62 in1003.0 mb 0.00 in0.0 mm 0.00 in0.0 mm 0.00 in0.0 mm
04:39 AM 6.6°F-14.1°C -0.8°F-18.2°C 71% 2.9 mph ENE4.7 kmh ENE 8.9 mph14.3 kmh 29.63 in1003.4 mb 0.00 in0.0 mm 0.00 in0.0 mm 0.00 in0.0 mm
04:49 AM 6.4°F-14.2°C -0.9°F-18.3°C 71% 2.9 mph NW4.7 kmh NW 8.9 mph14.3 kmh 29.64 in1003.7 mb 0.00 in0.0 mm 0.00 in0.0 mm 0.00 in0.0 mm
04:59 AM 6.4°F-14.2°C -0.9°F-18.3°C 71% 2.9 mph ESE4.7 kmh ESE 13.0 mph20.9 kmh 29.64 in1003.7 mb 0.00 in0.0 mm 0.00 in0.0 mm 0.00 in0.0 mm
05:09 AM 6.3°F-14.3°C -1.1°F-18.4°C 71% 4.0 mph NNW6.4 kmh NNW 11.0 mph17.7 kmh 29.63 in1003.4 mb 0.00 in0.0 mm 0.00 in0.0 mm 0.00 in0.0 mm
05:19 AM 6.1°F-14.4°C -1.7°F-18.7°C 70% 4.0 mph W6.4 kmh W 19.0 mph30.6 kmh 29.64 in1003.7 mb 0.00 in0.0 mm 0.00 in0.0 mm 0.00 in0.0 mm
05:29 AM 5.7°F-14.6°C -2.0°F-18.9°C 70% 2.9 mph W4.7 kmh W 15.0 mph24.1 kmh 29.65 in1004.1 mb 0.00 in0.0 mm 0.00 in0.0 mm 0.00 in0.0 mm
05:39 AM 5.5°F-14.7°C -2.2°F-19.0°C 70% 4.0 mph NW6.4 kmh NW 13.0 mph20.9 kmh 29.65 in1004.1 mb 0.00 in0.0 mm 0.00 in0.0 mm 0.00 in0.0 mm
05:49 AM 5.5°F-14.7°C -2.4°F-19.1°C 69% 4.0 mph SE6.4 kmh SE 12.1 mph19.5 kmh 29.66 in1004.4 mb 0.00 in0.0 mm 0.00 in0.0 mm 0.00 in0.0 mm
05:59 AM 5.5°F-14.7°C -2.4°F-19.1°C 69% 2.9 mph WNW4.7 kmh WNW 14.1 mph22.7 kmh 29.66 in1004.4 mb 0.00 in0.0 mm 0.00 in0.0 mm 0.00 in0.0 mm
06:09 AM 5.4°F-14.8°C -2.6°F-19.2°C 69% 4.0 mph E6.4 kmh E 15.0 mph24.1 kmh 29.67 in1004.7 mb 0.00 in0.0 mm 0.00 in0.0 mm 0.00 in0.0 mm
06:19 AM 5.2°F-14.9°C -2.2°F-19.0°C 71% 2.0 mph WNW3.2 kmh WNW 6.9 mph11.1 kmh 29.67 in1004.7 mb 0.00 in0.0 mm 0.00 in0.0 mm 0.00 in0.0 mm
06:29 AM 4.8°F-15.1°C -2.2°F-19.0°C 72% 2.9 mph W4.7 kmh W 9.0 mph14.5 kmh 29.67 in1004.7 mb 0.00 in0.0 mm 0.00 in0.0 mm 0.00 in0.0 mm
06:39 AM 4.6°F-15.2°C -2.7°F-19.3°C 71% 2.9 mph WNW4.7 kmh WNW 11.0 mph17.7 kmh 29.67 in1004.7 mb 0.00 in0.0 mm 0.00 in0.0 mm 0.00 in0.0 mm
06:49 AM 4.3°F-15.4°C -3.1°F-19.5°C 71% 2.9 mph NW4.7 kmh NW 10.1 mph16.3 kmh 29.68 in1005.1 mb 0.00 in0.0 mm 0.00 in0.0 mm 0.00 in0.0 mm
06:59 AM 4.1°F-15.5°C -3.3°F-19.6°C 71% 2.0 mph W3.2 kmh W 6.9 mph11.1 kmh 29.69 in1005.4 mb 0.00 in0.0 mm 0.00 in0.0 mm 0.00 in0.0 mm
07:09 AM 3.9°F-15.6°C -3.1°F-19.5°C 72% 2.0 mph SW3.2 kmh SW 6.0 mph9.7 kmh 29.70 in1005.8 mb 0.00 in0.0 mm 0.00 in0.0 mm 0.00 in0.0 mm
07:19 AM 3.6°F-15.8°C -3.5°F-19.7°C 72% 2.0 mph NW3.2 kmh NW 10.1 mph16.3 kmh 29.70 in1005.8 mb 0.00 in0.0 mm 0.00 in0.0 mm 0.00 in0.0 mm
07:29 AM 3.4°F-15.9°C -3.6°F-19.8°C 72% 2.0 mph SW3.2 kmh SW 11.0 mph17.7 kmh 29.71 in1006.1 mb 0.00 in0.0 mm 0.00 in0.0 mm 0.00 in0.0 mm
07:39 AM 3.2°F-16.0°C -3.8°F-19.9°C 72% 2.0 mph WNW3.2 kmh WNW 8.9 mph14.3 kmh 29.71 in1006.1 mb 0.00 in0.0 mm 0.00 in0.0 mm 0.00 in0.0 mm
07:49 AM 3.0°F-16.1°C -4.0°F-20.0°C 72% 2.0 mph NW3.2 kmh NW 13.0 mph20.9 kmh 29.72 in1006.4 mb 0.00 in0.0 mm 0.00 in0.0 mm 0.00 in0.0 mm
07:59 AM 2.8°F-16.2°C -4.4°F-20.2°C 71% 2.9 mph SW4.7 kmh SW 13.0 mph20.9 kmh 29.72 in1006.4 mb 0.00 in0.0 mm 0.00 in0.0 mm 0.00 in0.0 mm
08:09 AM 2.8°F-16.2°C -4.4°F-20.2°C 71% 2.9 mph W4.7 kmh W 16.1 mph25.9 kmh 29.72 in1006.4 mb 0.00 in0.0 mm 0.00 in0.0 mm 0.00 in0.0 mm
08:19 AM 2.8°F-16.2°C -4.4°F-20.2°C 71% 2.9 mph W4.7 kmh W 8.1 mph13.0 kmh 29.72 in1006.4 mb 0.00 in0.0 mm 0.00 in0.0 mm 0.00 in0.0 mm
08:29 AM 2.8°F-16.2°C -4.4°F-20.2°C 71% 2.0 mph NW3.2 kmh NW 8.1 mph13.0 kmh 29.73 in1006.8 mb 0.00 in0.0 mm 0.00 in0.0 mm 0.00 in0.0 mm
08:39 AM 3.0°F-16.1°C -4.5°F-20.3°C 70% 2.9 mph W4.7 kmh W 15.0 mph24.1 kmh 29.74 in1007.1 mb 0.00 in0.0 mm 0.00 in0.0 mm 0.00 in0.0 mm
08:49 AM 3.4°F-15.9°C -4.2°F-20.1°C 70% 2.9 mph NW4.7 kmh NW 14.0 mph22.5 kmh 29.75 in1007.5 mb 0.00 in0.0 mm 0.00 in0.0 mm 0.00 in0.0 mm
09:00 AM 3.6°F-15.8°C -4.4°F-20.2°C 69% 2.9 mph SE4.7 kmh SE 11.0 mph17.7 kmh 29.75 in1007.5 mb 0.00 in0.0 mm 0.00 in0.0 mm 0.00 in0.0 mm
09:10 AM 3.7°F-15.7°C -4.2°F-20.1°C 69% 2.9 mph W4.7 kmh W 11.0 mph17.7 kmh 29.76 in1007.8 mb 0.00 in0.0 mm 0.00 in0.0 mm 0.00 in0.0 mm
09:20 AM 3.6°F-15.8°C -4.9°F-20.5°C 67% 4.0 mph N6.4 kmh N 15.0 mph24.1 kmh 29.77 in1008.1 mb 0.00 in0.0 mm 0.00 in0.0 mm 0.00 in0.0 mm
09:30 AM 3.9°F-15.6°C -4.4°F-20.2°C 68% 2.9 mph E4.7 kmh E 11.0 mph17.7 kmh 29.77 in1008.1 mb 0.00 in0.0 mm 0.00 in0.0 mm 0.00 in0.0 mm
09:40 AM 4.1°F-15.5°C -4.2°F-20.1°C 68% 2.9 mph WNW4.7 kmh WNW 11.0 mph17.7 kmh 29.78 in1008.5 mb 0.00 in0.0 mm 0.00 in0.0 mm 0.00 in0.0 mm
09:50 AM 3.9°F-15.6°C -4.5°F-20.3°C 67% 2.9 mph WSW4.7 kmh WSW 10.1 mph16.3 kmh 29.78 in1008.5 mb 0.00 in0.0 mm 0.00 in0.0 mm 0.00 in0.0 mm
10:00 AM 3.6°F-15.8°C -5.6°F-20.9°C 65% 4.9 mph NNW7.9 kmh NNW 14.0 mph22.5 kmh 29.79 in1008.8 mb 0.00 in0.0 mm 0.00 in0.0 mm 0.00 in0.0 mm
10:10 AM 3.9°F-15.6°C -4.5°F-20.3°C 67% 2.9 mph WSW4.7 kmh WSW 11.0 mph17.7 kmh 29.80 in1009.1 mb 0.00 in0.0 mm 0.00 in0.0 mm 0.00 in0.0 mm
10:20 AM 3.9°F-15.6°C -5.3°F-20.7°C 65% 4.0 mph WNW6.4 kmh WNW 15.0 mph24.1 kmh 29.80 in1009.1 mb 0.00 in0.0 mm 0.00 in0.0 mm 0.00 in0.0 mm
10:30 AM 3.9°F-15.6°C -4.9°F-20.5°C 66% 4.0 mph E6.4 kmh E 13.0 mph20.9 kmh 29.80 in1009.1 mb 0.00 in0.0 mm 0.00 in0.0 mm 0.00 in0.0 mm
10:40 AM 4.1°F-15.5°C -5.1°F-20.6°C 65% 4.0 mph SSE6.4 kmh SSE 14.0 mph22.5 kmh 29.80 in1009.1 mb 0.00 in0.0 mm 0.00 in0.0 mm 0.00 in0.0 mm
10:50 AM 4.8°F-15.1°C -4.4°F-20.2°C 65% 2.9 mph S4.7 kmh S 13.0 mph20.9 kmh 29.81 in1009.5 mb 0.00 in0.0 mm 0.00 in0.0 mm 0.00 in0.0 mm
11:00 AM 4.6°F-15.2°C -4.9°F-20.5°C 64% 4.0 mph WNW6.4 kmh WNW 11.0 mph17.7 kmh 29.81 in1009.5 mb 0.00 in0.0 mm 0.00 in0.0 mm 0.00 in0.0 mm
11:10 AM 4.6°F-15.2°C -4.9°F-20.5°C 64% 4.9 mph WNW7.9 kmh WNW 15.0 mph24.1 kmh 29.82 in1009.8 mb 0.00 in0.0 mm 0.00 in0.0 mm 0.00 in0.0 mm
11:20 AM 5.0°F-15.0°C -4.2°F-20.1°C 65% 4.0 mph S6.4 kmh S 14.1 mph22.7 kmh 29.82 in1009.8 mb 0.00 in0.0 mm 0.00 in0.0 mm 0.00 in0.0 mm
11:30 AM 5.4°F-14.8°C -4.2°F-20.1°C 64% 4.0 mph ENE6.4 kmh ENE 12.0 mph19.3 kmh 29.82 in1009.8 mb 0.00 in0.0 mm 0.00 in0.0 mm 0.00 in0.0 mm
11:40 AM 5.7°F-14.6°C -3.8°F-19.9°C 64% 4.0 mph NNW6.4 kmh NNW 10.1 mph16.3 kmh 29.82 in1009.8 mb 0.00 in0.0 mm 0.00 in0.0 mm 0.00 in0.0 mm
11:50 AM 5.4°F-14.8°C -4.5°F-20.3°C 63% 4.9 mph NNW7.9 kmh NNW 11.0 mph17.7 kmh 29.83 in1010.2 mb 0.00 in0.0 mm 0.00 in0.0 mm 0.00 in0.0 mm
12:00 PM 5.5°F-14.7°C -4.4°F-20.2°C 63% 4.9 mph NW7.9 kmh NW 11.0 mph17.7 kmh 29.83 in1010.2 mb 0.00 in0.0 mm 0.00 in0.0 mm 0.00 in0.0 mm
12:10 PM 5.7°F-14.6°C -4.2°F-20.1°C 63% 4.0 mph W6.4 kmh W 13.0 mph20.9 kmh 29.83 in1010.2 mb 0.00 in0.0 mm 0.00 in0.0 mm 0.00 in0.0 mm
12:20 PM 6.3°F-14.3°C -3.6°F-19.8°C 63% 4.0 mph NW6.4 kmh NW 15.0 mph24.1 kmh 29.82 in1009.8 mb 0.00 in0.0 mm 0.00 in0.0 mm 0.00 in0.0 mm
12:30 PM 6.1°F-14.4°C -4.2°F-20.1°C 62% 4.9 mph W7.9 kmh W 11.0 mph17.7 kmh 29.82 in1009.8 mb 0.00 in0.0 mm 0.00 in0.0 mm 0.00 in0.0 mm
12:40 PM 7.2°F-13.8°C -2.4°F-19.1°C 64% 2.9 mph NW4.7 kmh NW 9.0 mph14.5 kmh 29.81 in1009.5 mb 0.00 in0.0 mm 0.00 in0.0 mm 0.00 in0.0 mm
12:50 PM 6.8°F-14.0°C -3.5°F-19.7°C 62% 4.0 mph NW6.4 kmh NW 12.1 mph19.5 kmh 29.81 in1009.5 mb 0.00 in0.0 mm 0.00 in0.0 mm 0.00 in0.0 mm
01:00 PM 6.8°F-14.0°C -3.5°F-19.7°C 62% 4.0 mph NW6.4 kmh NW 14.1 mph22.7 kmh 29.81 in1009.5 mb 0.00 in0.0 mm 0.00 in0.0 mm 0.00 in0.0 mm
01:10 PM 7.2°F-13.8°C -2.7°F-19.3°C 63% 4.0 mph W6.4 kmh W 11.0 mph17.7 kmh 29.81 in1009.5 mb 0.00 in0.0 mm 0.00 in0.0 mm 0.00 in0.0 mm
01:20 PM 6.8°F-14.0°C -3.1°F-19.5°C 63% 4.0 mph W6.4 kmh W 17.0 mph27.4 kmh 29.81 in1009.5 mb 0.00 in0.0 mm 0.00 in0.0 mm 0.00 in0.0 mm
01:30 PM 6.6°F-14.1°C -3.3°F-19.6°C 63% 4.0 mph WSW6.4 kmh WSW 17.0 mph27.4 kmh 29.81 in1009.5 mb 0.00 in0.0 mm 0.00 in0.0 mm 0.00 in0.0 mm
01:40 PM 7.3°F-13.7°C -2.6°F-19.2°C 63% 2.9 mph NW4.7 kmh NW 13.0 mph20.9 kmh 29.80 in1009.1 mb 0.00 in0.0 mm 0.00 in0.0 mm 0.00 in0.0 mm
01:50 PM 7.0°F-13.9°C -2.9°F-19.4°C 63% 4.0 mph SW6.4 kmh SW 15.0 mph24.1 kmh 29.81 in1009.5 mb 0.00 in0.0 mm 0.00 in0.0 mm 0.00 in0.0 mm
02:00 PM 7.2°F-13.8°C -2.7°F-19.3°C 63% 4.0 mph WSW6.4 kmh WSW 13.0 mph20.9 kmh 29.80 in1009.1 mb 0.00 in0.0 mm 0.00 in0.0 mm 0.00 in0.0 mm
02:10 PM 7.3°F-13.7°C -2.6°F-19.2°C 63% 4.0 mph SW6.4 kmh SW 8.9 mph14.3 kmh 29.80 in1009.1 mb 0.00 in0.0 mm 0.00 in0.0 mm 0.00 in0.0 mm
02:20 PM 7.5°F-13.6°C -3.1°F-19.5°C 61% 4.0 mph NW6.4 kmh NW 16.1 mph25.9 kmh 29.81 in1009.5 mb 0.00 in0.0 mm 0.00 in0.0 mm 0.00 in0.0 mm
02:30 PM 7.3°F-13.7°C -2.9°F-19.4°C 62% 4.0 mph NW6.4 kmh NW 15.0 mph24.1 kmh 29.80 in1009.1 mb 0.00 in0.0 mm 0.00 in0.0 mm 0.00 in0.0 mm
02:40 PM 7.5°F-13.6°C -2.7°F-19.3°C 62% 2.9 mph SW4.7 kmh SW 12.1 mph19.5 kmh 29.81 in1009.5 mb 0.00 in0.0 mm 0.00 in0.0 mm 0.00 in0.0 mm
02:50 PM 7.3°F-13.7°C -3.6°F-19.8°C 60% 4.0 mph WNW6.4 kmh WNW 12.0 mph19.3 kmh 29.81 in1009.5 mb 0.00 in0.0 mm 0.00 in0.0 mm 0.00 in0.0 mm
03:00 PM 7.2°F-13.8°C -3.1°F-19.5°C 62% 4.0 mph WNW6.4 kmh WNW 12.1 mph19.5 kmh 29.82 in1009.8 mb 0.00 in0.0 mm 0.00 in0.0 mm 0.00 in0.0 mm
03:10 PM 7.2°F-13.8°C -2.4°F-19.1°C 64% 4.0 mph WSW6.4 kmh WSW 11.0 mph17.7 kmh 29.82 in1009.8 mb 0.00 in0.0 mm 0.00 in0.0 mm 0.00 in0.0 mm
03:20 PM 7.3°F-13.7°C -1.3°F-18.5°C 67% 2.9 mph W4.7 kmh W 10.1 mph16.3 kmh 29.82 in1009.8 mb 0.00 in0.0 mm 0.00 in0.0 mm 0.00 in0.0 mm
03:30 PM 7.0°F-13.9°C -1.1°F-18.4°C 69% 4.0 mph NW6.4 kmh NW 14.1 mph22.7 kmh 29.83 in1010.2 mb 0.00 in0.0 mm 0.00 in0.0 mm 0.00 in0.0 mm
03:40 PM 7.0°F-13.9°C -0.8°F-18.2°C 70% 2.9 mph SSW4.7 kmh SSW 11.0 mph17.7 kmh 29.83 in1010.2 mb 0.00 in0.0 mm 0.00 in0.0 mm 0.00 in0.0 mm
03:50 PM 6.6°F-14.1°C -1.7°F-18.7°C 68% 4.9 mph WNW7.9 kmh WNW 13.0 mph20.9 kmh 29.84 in1010.5 mb 0.00 in0.0 mm 0.00 in0.0 mm 0.00 in0.0 mm
04:00 PM 6.8°F-14.0°C -1.5°F-18.6°C 68% 2.9 mph NNW4.7 kmh NNW 11.0 mph17.7 kmh 29.85 in1010.8 mb 0.00 in0.0 mm 0.00 in0.0 mm 0.00 in0.0 mm
04:10 PM 6.6°F-14.1°C -2.4°F-19.1°C 66% 4.0 mph W6.4 kmh W 11.0 mph17.7 kmh 29.85 in1010.8 mb 0.00 in0.0 mm 0.00 in0.0 mm 0.00 in0.0 mm
04:20 PM 6.6°F-14.1°C -2.0°F-18.9°C 67% 2.9 mph SW4.7 kmh SW 11.0 mph17.7 kmh 29.86 in1011.2 mb 0.00 in0.0 mm 0.00 in0.0 mm 0.00 in0.0 mm
04:30 PM 6.1°F-14.4°C -2.2°F-19.0°C 68% 4.0 mph SW6.4 kmh SW 15.0 mph24.1 kmh 29.87 in1011.5 mb 0.00 in0.0 mm 0.00 in0.0 mm 0.00 in0.0 mm
04:40 PM 5.9°F-14.5°C -1.5°F-18.6°C 71% 2.9 mph WNW4.7 kmh WNW 12.1 mph19.5 kmh 29.88 in1011.9 mb 0.00 in0.0 mm 0.00 in0.0 mm 0.00 in0.0 mm
04:50 PM 5.4°F-14.8°C -2.0°F-18.9°C 71% 4.9 mph W7.9 kmh W 12.0 mph19.3 kmh 29.88 in1011.9 mb 0.00 in0.0 mm 0.00 in0.0 mm 0.00 in0.0 mm
05:00 PM 5.5°F-14.7°C -2.4°F-19.1°C 69% 2.9 mph SE4.7 kmh SE 10.1 mph16.3 kmh 29.88 in1011.9 mb 0.00 in0.0 mm 0.00 in0.0 mm 0.00 in0.0 mm
05:10 PM 5.5°F-14.7°C -2.7°F-19.3°C 68% 4.0 mph WNW6.4 kmh WNW 12.0 mph19.3 kmh 29.89 in1012.2 mb 0.00 in0.0 mm 0.00 in0.0 mm 0.00 in0.0 mm
05:20 PM 5.4°F-14.8°C -2.2°F-19.0°C 70% 2.9 mph WSW4.7 kmh WSW 8.9 mph14.3 kmh 29.90 in1012.5 mb 0.00 in0.0 mm 0.00 in0.0 mm 0.00 in0.0 mm
05:30 PM 5.0°F-15.0°C -2.4°F-19.1°C 71% 4.0 mph W6.4 kmh W 17.0 mph27.4 kmh 29.91 in1012.9 mb 0.00 in0.0 mm 0.00 in0.0 mm 0.00 in0.0 mm
05:40 PM 4.6°F-15.2°C -2.0°F-18.9°C 73% 4.0 mph NW6.4 kmh NW 11.0 mph17.7 kmh 29.91 in1012.9 mb 0.00 in0.0 mm 0.00 in0.0 mm 0.00 in0.0 mm
05:50 PM 4.6°F-15.2°C -1.5°F-18.6°C 75% 2.9 mph NNE4.7 kmh NNE 10.0 mph16.1 kmh 29.92 in1013.2 mb 0.00 in0.0 mm 0.00 in0.0 mm 0.00 in0.0 mm
06:00 PM 4.6°F-15.2°C -1.3°F-18.5°C 76% 2.9 mph WNW4.7 kmh WNW 11.0 mph17.7 kmh 29.93 in1013.5 mb 0.00 in0.0 mm 0.00 in0.0 mm 0.00 in0.0 mm
06:10 PM 4.6°F-15.2°C -1.8°F-18.8°C 74% 2.9 mph W4.7 kmh W 8.9 mph14.3 kmh 29.93 in1013.5 mb 0.00 in0.0 mm 0.00 in0.0 mm 0.00 in0.0 mm
06:20 PM 4.5°F-15.3°C -2.6°F-19.2°C 72% 4.0 mph NE6.4 kmh NE 13.0 mph20.9 kmh 29.94 in1013.9 mb 0.00 in0.0 mm 0.00 in0.0 mm 0.00 in0.0 mm
06:30 PM 4.5°F-15.3°C -2.6°F-19.2°C 72% 2.9 mph WNW4.7 kmh WNW 13.0 mph20.9 kmh 29.95 in1014.2 mb 0.00 in0.0 mm 0.00 in0.0 mm 0.00 in0.0 mm
06:40 PM 4.3°F-15.4°C -2.7°F-19.3°C 72% 2.9 mph NNW4.7 kmh NNW 17.0 mph27.4 kmh 29.96 in1014.6 mb 0.00 in0.0 mm 0.00 in0.0 mm 0.00 in0.0 mm
06:50 PM 4.3°F-15.4°C -2.7°F-19.3°C 72% 2.9 mph WNW4.7 kmh WNW 10.0 mph16.1 kmh 29.96 in1014.6 mb 0.00 in0.0 mm 0.00 in0.0 mm 0.00 in0.0 mm
07:00 PM 4.3°F-15.4°C -2.2°F-19.0°C 74% 2.9 mph NW4.7 kmh NW 10.1 mph16.3 kmh 29.97 in1014.9 mb 0.00 in0.0 mm 0.00 in0.0 mm 0.00 in0.0 mm
07:10 PM 4.3°F-15.4°C -2.2°F-19.0°C 74% 2.9 mph WNW4.7 kmh WNW 8.9 mph14.3 kmh 29.97 in1014.9 mb 0.00 in0.0 mm 0.00 in0.0 mm 0.00 in0.0 mm
07:20 PM 4.3°F-15.4°C -1.8°F-18.8°C 75% 4.0 mph W6.4 kmh W 10.1 mph16.3 kmh 29.98 in1015.2 mb 0.00 in0.0 mm 0.00 in0.0 mm 0.00 in0.0 mm
07:30 PM 4.6°F-15.2°C -1.3°F-18.5°C 76% 2.0 mph NW3.2 kmh NW 10.1 mph16.3 kmh 29.98 in1015.2 mb 0.00 in0.0 mm 0.00 in0.0 mm 0.00 in0.0 mm
07:40 PM 4.6°F-15.2°C -1.5°F-18.6°C 75% 2.9 mph W4.7 kmh W 12.1 mph19.5 kmh 29.99 in1015.6 mb 0.00 in0.0 mm 0.00 in0.0 mm 0.00 in0.0 mm
07:50 PM 4.8°F-15.1°C -1.3°F-18.5°C 75% 2.9 mph WSW4.7 kmh WSW 11.0 mph17.7 kmh 29.99 in1015.6 mb 0.00 in0.0 mm 0.00 in0.0 mm 0.00 in0.0 mm
08:00 PM 5.0°F-15.0°C -1.8°F-18.8°C 73% 2.9 mph NW4.7 kmh NW 8.1 mph13.0 kmh 30.00 in1015.9 mb 0.00 in0.0 mm 0.00 in0.0 mm 0.00 in0.0 mm
08:10 PM 5.4°F-14.8°C -1.5°F-18.6°C 73% 2.9 mph N4.7 kmh N 10.1 mph16.3 kmh 30.01 in1016.3 mb 0.00 in0.0 mm 0.00 in0.0 mm 0.00 in0.0 mm
08:20 PM 5.5°F-14.7°C -1.5°F-18.6°C 72% 4.0 mph N6.4 kmh N 17.0 mph27.4 kmh 30.01 in1016.3 mb 0.00 in0.0 mm 0.00 in0.0 mm 0.00 in0.0 mm
08:30 PM 5.7°F-14.6°C -1.3°F-18.5°C 72% 4.0 mph WSW6.4 kmh WSW 21.0 mph33.8 kmh 30.02 in1016.6 mb 0.00 in0.0 mm 0.00 in0.0 mm 0.00 in0.0 mm
08:40 PM 5.5°F-14.7°C -1.8°F-18.8°C 71% 4.9 mph WNW7.9 kmh WNW 13.0 mph20.9 kmh 30.02 in1016.6 mb 0.00 in0.0 mm 0.00 in0.0 mm 0.00 in0.0 mm
08:50 PM 5.7°F-14.6°C -1.7°F-18.7°C 71% 4.9 mph W7.9 kmh W 13.0 mph20.9 kmh 30.03 in1016.9 mb 0.00 in0.0 mm 0.00 in0.0 mm 0.00 in0.0 mm
09:00 PM 5.7°F-14.6°C -2.0°F-18.9°C 70% 4.0 mph NNW6.4 kmh NNW 13.0 mph20.9 kmh 30.03 in1016.9 mb 0.00 in0.0 mm 0.00 in0.0 mm 0.00 in0.0 mm
09:10 PM 5.9°F-14.5°C -1.5°F-18.6°C 71% 2.9 mph WNW4.7 kmh WNW 14.0 mph22.5 kmh 30.04 in1017.3 mb 0.00 in0.0 mm 0.00 in0.0 mm 0.00 in0.0 mm
09:20 PM 5.9°F-14.5°C -2.0°F-18.9°C 69% 4.0 mph SW6.4 kmh SW 12.1 mph19.5 kmh 30.05 in1017.6 mb 0.00 in0.0 mm 0.00 in0.0 mm 0.00 in0.0 mm
09:30 PM 6.1°F-14.4°C -1.7°F-18.7°C 70% 2.9 mph NW4.7 kmh NW 17.0 mph27.4 kmh 30.05 in1017.6 mb 0.00 in0.0 mm 0.00 in0.0 mm 0.00 in0.0 mm
09:40 PM 6.1°F-14.4°C -1.8°F-18.8°C 69% 4.9 mph NNW7.9 kmh NNW 17.0 mph27.4 kmh 30.06 in1017.9 mb 0.00 in0.0 mm 0.00 in0.0 mm 0.00 in0.0 mm
09:50 PM 6.1°F-14.4°C -2.2°F-19.0°C 68% 4.0 mph NW6.4 kmh NW 10.0 mph16.1 kmh 30.06 in1017.9 mb 0.00 in0.0 mm 0.00 in0.0 mm 0.00 in0.0 mm
10:00 PM 6.1°F-14.4°C -2.2°F-19.0°C 68% 4.0 mph W6.4 kmh W 13.0 mph20.9 kmh 30.06 in1017.9 mb 0.00 in0.0 mm 0.00 in0.0 mm 0.00 in0.0 mm
10:10 PM 6.1°F-14.4°C -2.2°F-19.0°C 68% 4.9 mph NW7.9 kmh NW 13.0 mph20.9 kmh 30.07 in1018.3 mb 0.00 in0.0 mm 0.00 in0.0 mm 0.00 in0.0 mm
10:20 PM 6.1°F-14.4°C -2.2°F-19.0°C 68% 4.9 mph WNW7.9 kmh WNW 15.0 mph24.1 kmh 30.08 in1018.6 mb 0.00 in0.0 mm 0.00 in0.0 mm 0.00 in0.0 mm
10:30 PM 6.1°F-14.4°C -1.7°F-18.7°C 70% 4.0 mph NW6.4 kmh NW 13.0 mph20.9 kmh 30.09 in1019.0 mb 0.00 in0.0 mm 0.00 in0.0 mm 0.00 in0.0 mm
10:40 PM 6.1°F-14.4°C -1.3°F-18.5°C 71% 2.9 mph W4.7 kmh W 13.0 mph20.9 kmh 30.09 in1019.0 mb 0.00 in0.0 mm 0.00 in0.0 mm 0.00 in0.0 mm
10:50 PM 6.1°F-14.4°C -1.7°F-18.7°C 70% 2.0 mph NE3.2 kmh NE 6.9 mph11.1 kmh 30.10 in1019.3 mb 0.00 in0.0 mm 0.00 in0.0 mm 0.00 in0.0 mm
11:00 PM 6.1°F-14.4°C -1.7°F-18.7°C 70% 2.0 mph N3.2 kmh N 6.9 mph11.1 kmh 30.11 in1019.6 mb 0.00 in0.0 mm 0.00 in0.0 mm 0.00 in0.0 mm
11:11 PM 6.1°F-14.4°C -2.2°F-19.0°C 68% 2.9 mph WNW4.7 kmh WNW 11.0 mph17.7 kmh 30.11 in1019.6 mb 0.00 in0.0 mm 0.00 in0.0 mm 0.00 in0.0 mm
11:21 PM 6.1°F-14.4°C -2.2°F-19.0°C 68% 4.0 mph W6.4 kmh W 15.0 mph24.1 kmh 30.12 in1020.0 mb 0.00 in0.0 mm 0.00 in0.0 mm 0.00 in0.0 mm
11:31 PM 6.1°F-14.4°C -2.9°F-19.4°C 66% 2.9 mph SW4.7 kmh SW 13.0 mph20.9 kmh 30.13 in1020.3 mb 0.00 in0.0 mm 0.00 in0.0 mm 0.00 in0.0 mm
11:41 PM 6.1°F-14.4°C -3.5°F-19.7°C 64% 4.0 mph WNW6.4 kmh WNW 16.0 mph25.7 kmh 30.14 in1020.7 mb 0.00 in0.0 mm 0.00 in0.0 mm 0.00 in0.0 mm
11:51 PM 6.1°F-14.4°C -3.5°F-19.7°C 64% 4.0 mph WSW6.4 kmh WSW 13.0 mph20.9 kmh 30.14 in1020.7 mb 0.00 in0.0 mm 0.00 in0.0 mm 0.00 in0.0 mm